N257MC KSAN-KLAS
Flight info
| Callsign | N257MC |
|---|---|
| Flight time | 1h 11m |
| Altitude | 29000 |
| Route | PADRZ2 CHKNN SEBBY YELAH MISEN RNDRZ4 |
| Aircraft | SF50/L-SDGRWY/L |
Departure
| Time | 2026-05-06 02:16 |
|---|---|
| Airport | San Diego International Airport (KSAN) |
Arrival
| Time | 2026-05-06 03:27 |
|---|---|
| Airport | Harry Reid International Airport (KLAS) |
| Time | Latitude | Longitude | Altitude | Speed | Heading |
|---|---|---|---|---|---|
| 2026-05-06 01:57 | 32.73328 | -117.17749 | 7 ft | 0 kts | 304° |
| 2026-05-06 02:09 | 32.73332 | -117.17758 | 15 ft | 4 kts | 292° |
| 2026-05-06 02:10 | 32.73337 | -117.17778 | 14 ft | 1 kts | 286° |
| 2026-05-06 02:10 | 32.73352 | -117.17829 | 14 ft | 8 kts | 291° |
| 2026-05-06 02:10 | 32.73373 | -117.17879 | 14 ft | 6 kts | 296° |
| 2026-05-06 02:10 | 32.73375 | -117.17920 | 14 ft | 5 kts | 247° |
| 2026-05-06 02:11 | 32.73353 | -117.17944 | 15 ft | 5 kts | 207° |
| 2026-05-06 02:11 | 32.73313 | -117.17962 | 15 ft | 8 kts | 199° |
| 2026-05-06 02:11 | 32.73252 | -117.17975 | 13 ft | 9 kts | 156° |
| 2026-05-06 02:11 | 32.73217 | -117.17921 | 12 ft | 7 kts | 104° |
| 2026-05-06 02:12 | 32.73203 | -117.17864 | 13 ft | 9 kts | 106° |
| 2026-05-06 02:12 | 32.73185 | -117.17787 | 14 ft | 8 kts | 107° |
| 2026-05-06 02:12 | 32.73171 | -117.17731 | 14 ft | 7 kts | 106° |
| 2026-05-06 02:12 | 32.73155 | -117.17666 | 14 ft | 8 kts | 107° |
| 2026-05-06 02:13 | 32.73139 | -117.17609 | 13 ft | 6 kts | 111° |
| 2026-05-06 02:13 | 32.73122 | -117.17574 | 13 ft | 3 kts | 136° |
| 2026-05-06 02:13 | 32.73113 | -117.17563 | 13 ft | 2 kts | 137° |
| 2026-05-06 02:13 | 32.73062 | -117.17529 | 14 ft | 8 kts | 172° |
| 2026-05-06 02:14 | 32.73020 | -117.17569 | 13 ft | 9 kts | 275° |
| 2026-05-06 02:14 | 32.73022 | -117.17583 | 13 ft | 0 kts | 284° |
| 2026-05-06 02:15 | 32.73040 | -117.17663 | 11 ft | 40 kts | 286° |
| 2026-05-06 02:16 | 32.73184 | -117.18278 | 122 ft | 102 kts | 285° |
| 2026-05-06 02:16 | 32.73392 | -117.19195 | 700 ft | 128 kts | 287° |
| 2026-05-06 02:16 | 32.73873 | -117.20196 | 1441 ft | 150 kts | 303° |
| 2026-05-06 02:16 | 32.74439 | -117.21240 | 2436 ft | 149 kts | 300° |
| 2026-05-06 02:17 | 32.74992 | -117.22313 | 3116 ft | 155 kts | 301° |
| 2026-05-06 02:17 | 32.75568 | -117.23418 | 3852 ft | 157 kts | 301° |
| 2026-05-06 02:17 | 32.76143 | -117.24522 | 4589 ft | 159 kts | 301° |
| 2026-05-06 02:17 | 32.76729 | -117.25648 | 5313 ft | 161 kts | 301° |
| 2026-05-06 02:18 | 32.77329 | -117.26802 | 5959 ft | 169 kts | 301° |
| 2026-05-06 02:18 | 32.77946 | -117.28001 | 6636 ft | 171 kts | 302° |
| 2026-05-06 02:18 | 32.78582 | -117.29219 | 7259 ft | 175 kts | 302° |
| 2026-05-06 02:18 | 32.79226 | -117.30460 | 7892 ft | 178 kts | 302° |
| 2026-05-06 02:19 | 32.79873 | -117.31705 | 8606 ft | 175 kts | 305° |
| 2026-05-06 02:19 | 32.80617 | -117.32853 | 9247 ft | 177 kts | 309° |
| 2026-05-06 02:19 | 32.81373 | -117.34016 | 9933 ft | 177 kts | 308° |
| 2026-05-06 02:19 | 32.82126 | -117.35178 | 10516 ft | 179 kts | 308° |
| 2026-05-06 02:20 | 32.83664 | -117.37562 | 11662 ft | 183 kts | 308° |
| 2026-05-06 02:20 | 32.84446 | -117.38776 | 12212 ft | 186 kts | 308° |
| 2026-05-06 02:20 | 32.85238 | -117.40003 | 12793 ft | 187 kts | 308° |
| 2026-05-06 02:21 | 32.86030 | -117.41234 | 13373 ft | 189 kts | 309° |
| 2026-05-06 02:21 | 32.86834 | -117.42481 | 13941 ft | 190 kts | 309° |
| 2026-05-06 02:21 | 32.87639 | -117.43732 | 14432 ft | 192 kts | 309° |
| 2026-05-06 02:21 | 32.88459 | -117.45006 | 14891 ft | 195 kts | 308° |
| 2026-05-06 02:22 | 32.89273 | -117.46270 | 15380 ft | 196 kts | 308° |
| 2026-05-06 02:22 | 32.90122 | -117.47590 | 15856 ft | 199 kts | 308° |
| 2026-05-06 02:22 | 32.90956 | -117.48888 | 16408 ft | 197 kts | 308° |
| 2026-05-06 02:22 | 32.91784 | -117.50173 | 16867 ft | 199 kts | 308° |
| 2026-05-06 02:23 | 32.92626 | -117.51485 | 17369 ft | 200 kts | 308° |
| 2026-05-06 02:23 | 32.93472 | -117.52801 | 17842 ft | 202 kts | 308° |
| 2026-05-06 02:23 | 32.94330 | -117.54139 | 18315 ft | 203 kts | 308° |
| 2026-05-06 02:23 | 32.95196 | -117.55488 | 18693 ft | 207 kts | 307° |
| 2026-05-06 02:24 | 32.96072 | -117.56857 | 19124 ft | 207 kts | 307° |
| 2026-05-06 02:24 | 32.96945 | -117.58212 | 19568 ft | 207 kts | 307° |
| 2026-05-06 02:24 | 32.97821 | -117.59580 | 19986 ft | 207 kts | 306° |
| 2026-05-06 02:24 | 32.98697 | -117.60947 | 20391 ft | 209 kts | 306° |
| 2026-05-06 02:25 | 32.99580 | -117.62327 | 20779 ft | 210 kts | 306° |
| 2026-05-06 02:25 | 33.00468 | -117.63712 | 21209 ft | 210 kts | 306° |
| 2026-05-06 02:25 | 33.01356 | -117.65100 | 21616 ft | 212 kts | 307° |
| 2026-05-06 02:25 | 33.02245 | -117.66492 | 22067 ft | 210 kts | 307° |
| 2026-05-06 02:26 | 33.03131 | -117.67875 | 22503 ft | 209 kts | 307° |
| 2026-05-06 02:26 | 33.04009 | -117.69251 | 22971 ft | 208 kts | 307° |
| 2026-05-06 02:26 | 33.04882 | -117.70615 | 23404 ft | 207 kts | 306° |
| 2026-05-06 02:26 | 33.05754 | -117.71983 | 23808 ft | 207 kts | 306° |
| 2026-05-06 02:27 | 33.06689 | -117.73278 | 24167 ft | 207 kts | 316° |
| 2026-05-06 02:27 | 33.07801 | -117.74362 | 24530 ft | 206 kts | 317° |
| 2026-05-06 02:27 | 33.08882 | -117.75480 | 24911 ft | 205 kts | 316° |
| 2026-05-06 02:27 | 33.09965 | -117.76590 | 25307 ft | 204 kts | 317° |
| 2026-05-06 02:28 | 33.11045 | -117.77688 | 25691 ft | 204 kts | 316° |
| 2026-05-06 02:28 | 33.12119 | -117.78780 | 26067 ft | 203 kts | 316° |
| 2026-05-06 02:28 | 33.13192 | -117.79871 | 26452 ft | 202 kts | 316° |
| 2026-05-06 02:28 | 33.14260 | -117.80959 | 26841 ft | 201 kts | 316° |
| 2026-05-06 02:29 | 33.15310 | -117.82027 | 27232 ft | 201 kts | 315° |
| 2026-05-06 02:29 | 33.16369 | -117.83107 | 27618 ft | 200 kts | 315° |
| 2026-05-06 02:29 | 33.17425 | -117.84181 | 27998 ft | 199 kts | 315° |
| 2026-05-06 02:29 | 33.18478 | -117.85247 | 28378 ft | 199 kts | 316° |
| 2026-05-06 02:30 | 33.19700 | -117.86056 | 28756 ft | 204 kts | 335° |
| 2026-05-06 02:30 | 33.21112 | -117.86426 | 28973 ft | 217 kts | 351° |
| 2026-05-06 02:30 | 33.22676 | -117.86238 | 28990 ft | 236 kts | 9° |
| 2026-05-06 02:30 | 33.24223 | -117.85393 | 28986 ft | 253 kts | 27° |
| 2026-05-06 02:31 | 33.25740 | -117.84255 | 28981 ft | 262 kts | 27° |
| 2026-05-06 02:31 | 33.27315 | -117.83105 | 28983 ft | 269 kts | 26° |
| 2026-05-06 02:31 | 33.28937 | -117.81919 | 28981 ft | 277 kts | 27° |
| 2026-05-06 02:31 | 33.30603 | -117.80694 | 28984 ft | 285 kts | 27° |
| 2026-05-06 02:32 | 33.32315 | -117.79437 | 28987 ft | 292 kts | 27° |
| 2026-05-06 02:32 | 33.34062 | -117.78150 | 28985 ft | 298 kts | 27° |
| 2026-05-06 02:32 | 33.35840 | -117.76842 | 28984 ft | 302 kts | 27° |
| 2026-05-06 02:33 | 33.39467 | -117.74172 | 28982 ft | 309 kts | 27° |
| 2026-05-06 02:33 | 33.40712 | -117.73256 | 28982 ft | 311 kts | 27° |
| 2026-05-06 02:34 | 33.46893 | -117.68698 | 28977 ft | 314 kts | 27° |
| 2026-05-06 02:34 | 33.50512 | -117.66021 | 28969 ft | 296 kts | 29° |
| 2026-05-06 02:34 | 33.52277 | -117.64722 | 28962 ft | 299 kts | 29° |
| 2026-05-06 02:35 | 33.54056 | -117.63407 | 28963 ft | 302 kts | 29° |
| 2026-05-06 02:35 | 33.57656 | -117.60743 | 28966 ft | 303 kts | 29° |
| 2026-05-06 02:36 | 33.61228 | -117.58099 | 28960 ft | 300 kts | 29° |
| 2026-05-06 02:36 | 33.63001 | -117.56785 | 28959 ft | 300 kts | 29° |
| 2026-05-06 02:36 | 33.64774 | -117.55470 | 28957 ft | 300 kts | 29° |
| 2026-05-06 02:37 | 33.68340 | -117.52824 | 28959 ft | 302 kts | 29° |
| 2026-05-06 02:37 | 33.71923 | -117.50164 | 28956 ft | 303 kts | 30° |
| 2026-05-06 02:38 | 33.75489 | -117.47513 | 28955 ft | 303 kts | 30° |
| 2026-05-06 02:38 | 33.77269 | -117.46187 | 28963 ft | 297 kts | 31° |
| 2026-05-06 02:38 | 33.79003 | -117.44897 | 28953 ft | 290 kts | 31° |
| 2026-05-06 02:38 | 33.80723 | -117.43618 | 28947 ft | 293 kts | 31° |
| 2026-05-06 02:39 | 33.82463 | -117.42321 | 28945 ft | 295 kts | 31° |
| 2026-05-06 02:39 | 33.84213 | -117.41017 | 28947 ft | 295 kts | 31° |
| 2026-05-06 02:39 | 33.85955 | -117.39716 | 28948 ft | 294 kts | 31° |
| 2026-05-06 02:39 | 33.87695 | -117.38419 | 28947 ft | 293 kts | 31° |
| 2026-05-06 02:40 | 33.89425 | -117.37128 | 28947 ft | 292 kts | 31° |
| 2026-05-06 02:40 | 33.91151 | -117.35838 | 28946 ft | 292 kts | 31° |
| 2026-05-06 02:40 | 33.92877 | -117.34551 | 28945 ft | 292 kts | 31° |
| 2026-05-06 02:40 | 33.94606 | -117.33256 | 28928 ft | 294 kts | 31° |
| 2026-05-06 02:41 | 33.96345 | -117.31955 | 28928 ft | 295 kts | 31° |
| 2026-05-06 02:41 | 33.98092 | -117.30649 | 28929 ft | 296 kts | 31° |
| 2026-05-06 02:41 | 33.99840 | -117.29339 | 28947 ft | 296 kts | 31° |
| 2026-05-06 02:41 | 34.01591 | -117.28028 | 28949 ft | 296 kts | 31° |
| 2026-05-06 02:42 | 34.03334 | -117.26721 | 28946 ft | 294 kts | 31° |
| 2026-05-06 02:42 | 34.05067 | -117.25422 | 28949 ft | 290 kts | 33° |
| 2026-05-06 02:42 | 34.06728 | -117.24178 | 28949 ft | 273 kts | 33° |
| 2026-05-06 02:42 | 34.08306 | -117.22994 | 28943 ft | 272 kts | 33° |
| 2026-05-06 02:43 | 34.09924 | -117.21775 | 28943 ft | 276 kts | 33° |
| 2026-05-06 02:43 | 34.11557 | -117.20551 | 28945 ft | 277 kts | 33° |
| 2026-05-06 02:43 | 34.13193 | -117.19321 | 28946 ft | 277 kts | 33° |
| 2026-05-06 02:43 | 34.14834 | -117.18088 | 28914 ft | 278 kts | 33° |
| 2026-05-06 02:44 | 34.16478 | -117.16850 | 28917 ft | 279 kts | 34° |
| 2026-05-06 02:44 | 34.18115 | -117.15620 | 28921 ft | 277 kts | 33° |
| 2026-05-06 02:44 | 34.19746 | -117.14392 | 28920 ft | 275 kts | 34° |
| 2026-05-06 02:44 | 34.21363 | -117.13174 | 28916 ft | 274 kts | 33° |
| 2026-05-06 02:45 | 34.22981 | -117.11955 | 28917 ft | 274 kts | 34° |
| 2026-05-06 02:45 | 34.24603 | -117.10731 | 28905 ft | 275 kts | 34° |
| 2026-05-06 02:45 | 34.26227 | -117.09506 | 28906 ft | 275 kts | 34° |
| 2026-05-06 02:45 | 34.27853 | -117.08279 | 28902 ft | 276 kts | 34° |
| 2026-05-06 02:46 | 34.29480 | -117.07051 | 28904 ft | 276 kts | 33° |
| 2026-05-06 02:46 | 34.31107 | -117.05820 | 28904 ft | 276 kts | 34° |
| 2026-05-06 02:46 | 34.32735 | -117.04591 | 28897 ft | 276 kts | 34° |
| 2026-05-06 02:46 | 34.34328 | -117.03391 | 28911 ft | 261 kts | 36° |
| 2026-05-06 02:47 | 34.35840 | -117.02247 | 28891 ft | 254 kts | 36° |
| 2026-05-06 02:47 | 34.37350 | -117.01100 | 28891 ft | 259 kts | 36° |
| 2026-05-06 02:47 | 34.38891 | -116.99933 | 28884 ft | 261 kts | 36° |
| 2026-05-06 02:47 | 34.40435 | -116.98764 | 28869 ft | 262 kts | 36° |
| 2026-05-06 02:48 | 34.41978 | -116.97597 | 28869 ft | 262 kts | 36° |
| 2026-05-06 02:48 | 34.43521 | -116.96426 | 28869 ft | 262 kts | 36° |
| 2026-05-06 02:48 | 34.45063 | -116.95256 | 28868 ft | 261 kts | 36° |
| 2026-05-06 02:48 | 34.46604 | -116.94089 | 28867 ft | 261 kts | 36° |
| 2026-05-06 02:49 | 34.48142 | -116.92920 | 28870 ft | 261 kts | 36° |
| 2026-05-06 02:49 | 34.49677 | -116.91755 | 28856 ft | 260 kts | 36° |
| 2026-05-06 02:49 | 34.51210 | -116.90590 | 28855 ft | 260 kts | 36° |
| 2026-05-06 02:49 | 34.52739 | -116.89428 | 28854 ft | 260 kts | 36° |
| 2026-05-06 02:50 | 34.54268 | -116.88266 | 28858 ft | 259 kts | 36° |
| 2026-05-06 02:50 | 34.55794 | -116.87104 | 28856 ft | 259 kts | 36° |
| 2026-05-06 02:50 | 34.57319 | -116.85945 | 28852 ft | 258 kts | 36° |
| 2026-05-06 02:50 | 34.58841 | -116.84785 | 28851 ft | 258 kts | 36° |
| 2026-05-06 02:51 | 34.60361 | -116.83628 | 28851 ft | 258 kts | 36° |
| 2026-05-06 02:51 | 34.61876 | -116.82476 | 28841 ft | 254 kts | 36° |
| 2026-05-06 02:51 | 34.63356 | -116.81347 | 28842 ft | 248 kts | 37° |
| 2026-05-06 02:51 | 34.64796 | -116.80245 | 28841 ft | 249 kts | 37° |
| 2026-05-06 02:52 | 34.66272 | -116.79119 | 28836 ft | 252 kts | 37° |
| 2026-05-06 02:52 | 34.67760 | -116.77983 | 28840 ft | 254 kts | 37° |
| 2026-05-06 02:52 | 34.69251 | -116.76845 | 28843 ft | 253 kts | 37° |
| 2026-05-06 02:52 | 34.70735 | -116.75714 | 28841 ft | 251 kts | 37° |
| 2026-05-06 02:53 | 34.72206 | -116.74588 | 28839 ft | 249 kts | 37° |
| 2026-05-06 02:53 | 34.73675 | -116.73464 | 28838 ft | 250 kts | 37° |
| 2026-05-06 02:53 | 34.75145 | -116.72340 | 28840 ft | 250 kts | 37° |
| 2026-05-06 02:53 | 34.76624 | -116.71206 | 28842 ft | 251 kts | 37° |
| 2026-05-06 02:54 | 34.78103 | -116.70075 | 28843 ft | 252 kts | 37° |
| 2026-05-06 02:54 | 34.79591 | -116.68936 | 28843 ft | 253 kts | 37° |
| 2026-05-06 02:54 | 34.81081 | -116.67795 | 28847 ft | 253 kts | 37° |
| 2026-05-06 02:54 | 34.82566 | -116.66655 | 28845 ft | 252 kts | 37° |
| 2026-05-06 02:55 | 34.84045 | -116.65523 | 28839 ft | 250 kts | 37° |
| 2026-05-06 02:55 | 34.85502 | -116.64379 | 28835 ft | 248 kts | 39° |
| 2026-05-06 02:55 | 34.86841 | -116.63076 | 28835 ft | 247 kts | 42° |
| 2026-05-06 02:55 | 34.88195 | -116.61770 | 28833 ft | 249 kts | 41° |
| 2026-05-06 02:56 | 34.89563 | -116.60461 | 28828 ft | 250 kts | 42° |
| 2026-05-06 02:56 | 34.90915 | -116.59153 | 28834 ft | 246 kts | 42° |
| 2026-05-06 02:56 | 34.92245 | -116.57865 | 28853 ft | 243 kts | 42° |
| 2026-05-06 02:56 | 34.93572 | -116.56575 | 28847 ft | 245 kts | 42° |
| 2026-05-06 02:57 | 34.94898 | -116.55289 | 28843 ft | 247 kts | 42° |
| 2026-05-06 02:57 | 34.96259 | -116.53972 | 28835 ft | 245 kts | 42° |
| 2026-05-06 02:57 | 34.97573 | -116.52697 | 28830 ft | 244 kts | 42° |
| 2026-05-06 02:57 | 34.98898 | -116.51412 | 28827 ft | 242 kts | 42° |
| 2026-05-06 02:58 | 35.00219 | -116.50127 | 28817 ft | 244 kts | 42° |
| 2026-05-06 02:58 | 35.01549 | -116.48834 | 28814 ft | 245 kts | 42° |
| 2026-05-06 02:58 | 35.02884 | -116.47539 | 28809 ft | 246 kts | 42° |
| 2026-05-06 02:58 | 35.04230 | -116.46229 | 28805 ft | 247 kts | 42° |
| 2026-05-06 02:59 | 35.05573 | -116.44924 | 28800 ft | 246 kts | 42° |
| 2026-05-06 02:59 | 35.06909 | -116.43623 | 28794 ft | 245 kts | 42° |
| 2026-05-06 02:59 | 35.08241 | -116.42328 | 28790 ft | 244 kts | 42° |
| 2026-05-06 02:59 | 35.09567 | -116.41035 | 28789 ft | 243 kts | 42° |
| 2026-05-06 03:00 | 35.10808 | -116.39654 | 28798 ft | 241 kts | 49° |
| 2026-05-06 03:00 | 35.11952 | -116.38150 | 28801 ft | 243 kts | 49° |
| 2026-05-06 03:00 | 35.13126 | -116.36648 | 28799 ft | 245 kts | 48° |
| 2026-05-06 03:00 | 35.14311 | -116.35125 | 28516 ft | 247 kts | 49° |
| 2026-05-06 03:01 | 35.15473 | -116.33625 | 28186 ft | 239 kts | 49° |
| 2026-05-06 03:01 | 35.16591 | -116.32176 | 27881 ft | 238 kts | 49° |
| 2026-05-06 03:01 | 35.17742 | -116.30687 | 27566 ft | 244 kts | 48° |
| 2026-05-06 03:01 | 35.18918 | -116.29170 | 27264 ft | 248 kts | 49° |
| 2026-05-06 03:02 | 35.20109 | -116.27627 | 26928 ft | 251 kts | 48° |
| 2026-05-06 03:02 | 35.21296 | -116.26086 | 26591 ft | 247 kts | 48° |
| 2026-05-06 03:02 | 35.22473 | -116.24562 | 26257 ft | 247 kts | 47° |
| 2026-05-06 03:02 | 35.23639 | -116.22983 | 25931 ft | 253 kts | 49° |
| 2026-05-06 03:03 | 35.24823 | -116.21358 | 25596 ft | 258 kts | 49° |
| 2026-05-06 03:03 | 35.26020 | -116.19717 | 25255 ft | 259 kts | 49° |
| 2026-05-06 03:03 | 35.27218 | -116.18076 | 24915 ft | 259 kts | 49° |
| 2026-05-06 03:03 | 35.28428 | -116.16420 | 24574 ft | 262 kts | 49° |
| 2026-05-06 03:04 | 35.29650 | -116.14746 | 24226 ft | 266 kts | 49° |
| 2026-05-06 03:04 | 35.30891 | -116.13045 | 23882 ft | 269 kts | 49° |
| 2026-05-06 03:04 | 35.32140 | -116.11333 | 23530 ft | 271 kts | 49° |
| 2026-05-06 03:04 | 35.32991 | -116.10163 | 23259 ft | 273 kts | 49° |
| 2026-05-06 03:05 | 35.34255 | -116.08428 | 22886 ft | 273 kts | 48° |
| 2026-05-06 03:05 | 35.35521 | -116.06690 | 22524 ft | 274 kts | 48° |
| 2026-05-06 03:05 | 35.36794 | -116.04939 | 22164 ft | 276 kts | 48° |
| 2026-05-06 03:05 | 35.38078 | -116.03176 | 21798 ft | 278 kts | 48° |
| 2026-05-06 03:06 | 35.39366 | -116.01403 | 21429 ft | 279 kts | 48° |
| 2026-05-06 03:06 | 35.40667 | -115.99613 | 21078 ft | 282 kts | 48° |
| 2026-05-06 03:06 | 35.41971 | -115.97817 | 20703 ft | 284 kts | 48° |
| 2026-05-06 03:06 | 35.43284 | -115.96005 | 20326 ft | 284 kts | 47° |
| 2026-05-06 03:07 | 35.44587 | -115.94210 | 19954 ft | 286 kts | 48° |
| 2026-05-06 03:07 | 35.45937 | -115.92348 | 19569 ft | 291 kts | 48° |
| 2026-05-06 03:07 | 35.47283 | -115.90488 | 19189 ft | 291 kts | 48° |
| 2026-05-06 03:07 | 35.48627 | -115.88634 | 18821 ft | 291 kts | 47° |
| 2026-05-06 03:08 | 35.49972 | -115.86776 | 18434 ft | 292 kts | 47° |
| 2026-05-06 03:08 | 35.51331 | -115.84898 | 18025 ft | 296 kts | 47° |
| 2026-05-06 03:08 | 35.52697 | -115.83006 | 17695 ft | 295 kts | 47° |
| 2026-05-06 03:08 | 35.54060 | -115.81121 | 17419 ft | 298 kts | 47° |
| 2026-05-06 03:09 | 35.55424 | -115.79233 | 17034 ft | 299 kts | 47° |
| 2026-05-06 03:09 | 35.56794 | -115.77333 | 16645 ft | 296 kts | 47° |
| 2026-05-06 03:09 | 35.58174 | -115.75420 | 16261 ft | 294 kts | 47° |
| 2026-05-06 03:09 | 35.59531 | -115.73539 | 16051 ft | 293 kts | 47° |
| 2026-05-06 03:10 | 35.60882 | -115.71715 | 16050 ft | 291 kts | 46° |
| 2026-05-06 03:10 | 35.62251 | -115.69891 | 16048 ft | 289 kts | 46° |
| 2026-05-06 03:10 | 35.63603 | -115.68066 | 16048 ft | 288 kts | 47° |
| 2026-05-06 03:10 | 35.64964 | -115.66220 | 16050 ft | 287 kts | 47° |
| 2026-05-06 03:11 | 35.66291 | -115.64431 | 16048 ft | 286 kts | 46° |
| 2026-05-06 03:11 | 35.67628 | -115.62623 | 16062 ft | 287 kts | 47° |
| 2026-05-06 03:11 | 35.68968 | -115.60808 | 16062 ft | 286 kts | 47° |
| 2026-05-06 03:11 | 35.70307 | -115.58994 | 16061 ft | 286 kts | 47° |
| 2026-05-06 03:12 | 35.71645 | -115.57183 | 16060 ft | 286 kts | 47° |
| 2026-05-06 03:12 | 35.73078 | -115.55506 | 16054 ft | 284 kts | 37° |
| 2026-05-06 03:12 | 35.74753 | -115.54222 | 16053 ft | 283 kts | 29° |
| 2026-05-06 03:12 | 35.76474 | -115.53034 | 16038 ft | 284 kts | 30° |
| 2026-05-06 03:13 | 35.78214 | -115.51807 | 15754 ft | 293 kts | 30° |
| 2026-05-06 03:13 | 35.79991 | -115.50558 | 15381 ft | 294 kts | 30° |
| 2026-05-06 03:13 | 35.81770 | -115.49315 | 14996 ft | 293 kts | 30° |
| 2026-05-06 03:13 | 35.83540 | -115.48072 | 14602 ft | 293 kts | 30° |
| 2026-05-06 03:14 | 35.85298 | -115.46838 | 14217 ft | 288 kts | 30° |
| 2026-05-06 03:14 | 35.87031 | -115.45623 | 13834 ft | 286 kts | 30° |
| 2026-05-06 03:14 | 35.88755 | -115.44410 | 13440 ft | 285 kts | 30° |
| 2026-05-06 03:14 | 35.90472 | -115.43205 | 13060 ft | 283 kts | 30° |
| 2026-05-06 03:15 | 35.92181 | -115.42007 | 12793 ft | 283 kts | 29° |
| 2026-05-06 03:15 | 35.93899 | -115.40813 | 12549 ft | 284 kts | 29° |
| 2026-05-06 03:15 | 35.95623 | -115.39611 | 12292 ft | 285 kts | 29° |
| 2026-05-06 03:15 | 35.97331 | -115.38379 | 12035 ft | 284 kts | 33° |
| 2026-05-06 03:16 | 35.98824 | -115.36786 | 11779 ft | 285 kts | 45° |
| 2026-05-06 03:16 | 36.00013 | -115.34829 | 11530 ft | 286 kts | 57° |
| 2026-05-06 03:16 | 36.00837 | -115.32595 | 11278 ft | 287 kts | 69° |
| 2026-05-06 03:16 | 36.01254 | -115.30190 | 11021 ft | 288 kts | 81° |
| 2026-05-06 03:17 | 36.01251 | -115.27701 | 10769 ft | 291 kts | 91° |
| 2026-05-06 03:17 | 36.01113 | -115.25200 | 10516 ft | 291 kts | 91° |
| 2026-05-06 03:17 | 36.01002 | -115.22824 | 10272 ft | 267 kts | 91° |
| 2026-05-06 03:17 | 36.00893 | -115.20611 | 10039 ft | 248 kts | 91° |
| 2026-05-06 03:18 | 36.00792 | -115.18534 | 9826 ft | 243 kts | 90° |
| 2026-05-06 03:18 | 36.00688 | -115.16464 | 9602 ft | 241 kts | 91° |
| 2026-05-06 03:18 | 36.00584 | -115.14389 | 9386 ft | 243 kts | 91° |
| 2026-05-06 03:18 | 36.00480 | -115.12305 | 9171 ft | 243 kts | 91° |
| 2026-05-06 03:19 | 36.00374 | -115.10223 | 8955 ft | 243 kts | 90° |
| 2026-05-06 03:19 | 36.00268 | -115.08136 | 8733 ft | 243 kts | 91° |
| 2026-05-06 03:19 | 36.00163 | -115.06060 | 8513 ft | 242 kts | 91° |
| 2026-05-06 03:19 | 36.00055 | -115.03988 | 8295 ft | 242 kts | 91° |
| 2026-05-06 03:20 | 35.99911 | -114.99823 | 7773 ft | 246 kts | 89° |
| 2026-05-06 03:20 | 35.99904 | -114.97713 | 7443 ft | 244 kts | 90° |
| 2026-05-06 03:20 | 35.99891 | -114.95635 | 7134 ft | 240 kts | 91° |
| 2026-05-06 03:21 | 36.00024 | -114.93630 | 6822 ft | 231 kts | 72° |
| 2026-05-06 03:21 | 36.00793 | -114.91929 | 6535 ft | 228 kts | 50° |
| 2026-05-06 03:21 | 36.02033 | -114.90715 | 6241 ft | 229 kts | 26° |
| 2026-05-06 03:21 | 36.03557 | -114.90231 | 5936 ft | 227 kts | 0° |
| 2026-05-06 03:22 | 36.05088 | -114.90568 | 5638 ft | 223 kts | 336° |
| 2026-05-06 03:22 | 36.06346 | -114.91626 | 5348 ft | 218 kts | 312° |
| 2026-05-06 03:22 | 36.07137 | -114.93188 | 5081 ft | 212 kts | 288° |
| 2026-05-06 03:22 | 36.07352 | -114.94900 | 4845 ft | 192 kts | 270° |
| 2026-05-06 03:23 | 36.07376 | -114.96437 | 4602 ft | 167 kts | 268° |
| 2026-05-06 03:23 | 36.07378 | -114.97804 | 4394 ft | 151 kts | 266° |
| 2026-05-06 03:23 | 36.07373 | -114.99056 | 4209 ft | 139 kts | 268° |
| 2026-05-06 03:23 | 36.07377 | -115.00161 | 4044 ft | 124 kts | 265° |
| 2026-05-06 03:24 | 36.07368 | -115.01275 | 3884 ft | 134 kts | 269° |
| 2026-05-06 03:24 | 36.07377 | -115.02418 | 3712 ft | 131 kts | 268° |
| 2026-05-06 03:24 | 36.07369 | -115.03543 | 3540 ft | 132 kts | 268° |
| 2026-05-06 03:24 | 36.07373 | -115.04632 | 3374 ft | 120 kts | 266° |
| 2026-05-06 03:25 | 36.07371 | -115.05624 | 3227 ft | 110 kts | 267° |
| 2026-05-06 03:25 | 36.07376 | -115.06549 | 3095 ft | 116 kts | 267° |
| 2026-05-06 03:25 | 36.07362 | -115.07579 | 2929 ft | 123 kts | 264° |
| 2026-05-06 03:25 | 36.07373 | -115.08640 | 2759 ft | 123 kts | 264° |
| 2026-05-06 03:26 | 36.07363 | -115.09693 | 2589 ft | 119 kts | 265° |
| 2026-05-06 03:26 | 36.07373 | -115.10667 | 2421 ft | 111 kts | 265° |
| 2026-05-06 03:26 | 36.07368 | -115.11608 | 2304 ft | 106 kts | 268° |
| 2026-05-06 03:26 | 36.07365 | -115.12497 | 2143 ft | 103 kts | 268° |
| 2026-05-06 03:27 | 36.07364 | -115.13363 | 2089 ft | 95 kts | 270° |
| 2026-05-06 03:27 | 36.07364 | -115.14043 | 2096 ft | 59 kts | 269° |
| 2026-05-06 03:27 | 36.07389 | -115.14380 | 2110 ft | 27 kts | 290° |
| 2026-05-06 03:27 | 36.07459 | -115.14565 | 2111 ft | 20 kts | 295° |
| 2026-05-06 03:28 | 36.07493 | -115.14665 | 2112 ft | 11 kts | 283° |
| 2026-05-06 03:28 | 36.07500 | -115.14741 | 2114 ft | 7 kts | 272° |
| 2026-05-06 03:28 | 36.07502 | -115.14843 | 2116 ft | 15 kts | 269° |
| 2026-05-06 03:28 | 36.07502 | -115.14975 | 2119 ft | 16 kts | 271° |
| 2026-05-06 03:29 | 36.07503 | -115.15119 | 2122 ft | 17 kts | 270° |
| 2026-05-06 03:29 | 36.07503 | -115.15271 | 2127 ft | 18 kts | 269° |
| 2026-05-06 03:29 | 36.07502 | -115.15443 | 2133 ft | 23 kts | 270° |
| 2026-05-06 03:29 | 36.07502 | -115.15649 | 2139 ft | 25 kts | 270° |
| 2026-05-06 03:30 | 36.07502 | -115.15866 | 2148 ft | 25 kts | 270° |
| 2026-05-06 03:30 | 36.07502 | -115.16084 | 2155 ft | 26 kts | 270° |
| 2026-05-06 03:30 | 36.07502 | -115.16306 | 2160 ft | 26 kts | 270° |
| 2026-05-06 03:30 | 36.07480 | -115.16497 | 2157 ft | 20 kts | 210° |
| 2026-05-06 03:31 | 36.07384 | -115.16577 | 2162 ft | 14 kts | 238° |
| 2026-05-06 03:31 | 36.07413 | -115.16681 | 2158 ft | 14 kts | 298° |
| 2026-05-06 03:31 | 36.07458 | -115.16799 | 2155 ft | 17 kts | 296° |
| 2026-05-06 03:31 | 36.07517 | -115.16950 | 2159 ft | 24 kts | 295° |
| 2026-05-06 03:32 | 36.07618 | -115.17095 | 2161 ft | 22 kts | 2° |
| 2026-05-06 03:32 | 36.07762 | -115.17100 | 2157 ft | 19 kts | 355° |
| 2026-05-06 03:32 | 36.07878 | -115.17082 | 2157 ft | 15 kts | 23° |
| 2026-05-06 03:32 | 36.07979 | -115.17031 | 2155 ft | 17 kts | 9° |
| 2026-05-06 03:33 | 36.08059 | -115.17039 | 2155 ft | 0 kts | 355° |